createdAt,value
2018-02-04T00:00:52.062Z,15.00
2018-02-04T00:03:20.307Z,15.17
2018-02-04T00:05:47.786Z,14.87
2018-02-04T00:08:15.259Z,18.03
2018-02-04T00:10:43.490Z,16.13
2018-02-04T00:13:10.982Z,16.13
2018-02-04T00:15:38.454Z,14.23
2018-02-04T00:18:06.694Z,14.93
2018-02-04T00:20:34.963Z,15.27
2018-02-04T00:23:02.447Z,13.17
2018-02-04T00:25:30.757Z,14.20
2018-02-04T00:27:58.483Z,14.80
2018-02-04T00:30:25.937Z,14.20
2018-02-04T00:32:53.410Z,13.27
2018-02-04T00:35:21.635Z,15.60
2018-02-04T00:37:49.101Z,13.93
2018-02-04T00:40:16.569Z,12.50
2018-02-04T00:42:44.049Z,12.87
2018-02-04T00:45:11.507Z,11.57
2018-02-04T00:47:39.729Z,13.73
2018-02-04T00:50:07.194Z,15.17
2018-02-04T00:52:34.669Z,14.40
2018-02-04T00:55:02.131Z,14.93
2018-02-04T00:57:30.351Z,13.53
2018-02-04T00:59:58.597Z,14.20
2018-02-04T01:02:26.061Z,13.63
2018-02-04T01:04:53.523Z,13.60
2018-02-04T01:07:21.766Z,12.53
2018-02-04T01:09:49.242Z,12.63
2018-02-04T01:12:16.704Z,11.73
2018-02-04T01:14:44.165Z,10.93
2018-02-04T01:17:11.616Z,9.90
2018-02-04T01:19:39.105Z,11.97
2018-02-04T01:22:06.561Z,13.37
2018-02-04T01:24:34.017Z,10.30
2018-02-04T01:27:01.482Z,12.33
2018-02-04T01:29:29.186Z,11.80
2018-02-04T01:31:56.654Z,11.40
2018-02-04T01:34:24.131Z,12.90
2018-02-04T01:36:52.379Z,12.27
2018-02-04T01:39:19.845Z,11.37
2018-02-04T01:41:47.299Z,9.87
2018-02-04T01:44:14.766Z,11.03
2018-02-04T01:46:42.246Z,10.80
2018-02-04T01:49:10.484Z,12.03
2018-02-04T01:51:37.941Z,11.73
2018-02-04T01:54:05.402Z,11.90
2018-02-04T01:56:32.853Z,10.70
2018-02-04T01:59:00.536Z,10.33
2018-02-04T02:01:27.998Z,11.07
2018-02-04T02:03:56.231Z,12.17
2018-02-04T02:06:23.673Z,10.93
2018-02-04T02:08:51.157Z,9.70
2018-02-04T02:11:18.613Z,10.13
2018-02-04T02:13:46.082Z,10.00
2018-02-04T02:16:13.538Z,10.63
2018-02-04T02:18:41.006Z,12.77
2018-02-04T02:21:08.457Z,9.50
2018-02-04T02:23:35.921Z,10.30
2018-02-04T02:26:03.374Z,10.50
2018-02-04T02:28:30.837Z,9.83
2018-02-04T02:30:58.302Z,9.77
2018-02-04T02:33:25.753Z,9.77
2018-02-04T02:35:53.212Z,8.80
2018-02-04T02:38:20.660Z,8.90
2018-02-04T02:40:48.123Z,10.27
2018-02-04T02:43:15.581Z,10.40
2018-02-04T02:45:43.087Z,10.20
2018-02-04T02:48:10.555Z,11.10
2018-02-04T02:50:38.006Z,10.37
2018-02-04T02:53:05.474Z,8.67
2018-02-04T02:55:32.937Z,10.83
2018-02-04T02:58:00.392Z,9.87
2018-02-04T03:00:27.853Z,9.33
2018-02-04T03:02:55.317Z,13.03
2018-02-04T03:05:22.783Z,11.03
2018-02-04T03:07:50.250Z,8.80
2018-02-04T03:10:17.702Z,9.13
2018-02-04T03:12:45.170Z,8.57
2018-02-04T03:15:12.623Z,8.90
2018-02-04T03:17:40.084Z,8.83
2018-02-04T03:20:07.542Z,10.47
2018-02-04T03:22:35.002Z,9.60
2018-02-04T03:25:03.222Z,9.27
2018-02-04T03:27:30.683Z,9.53
2018-02-04T03:29:58.147Z,9.37
2018-02-04T03:32:26.378Z,11.50
2018-02-04T03:34:54.604Z,10.70
2018-02-04T03:37:22.058Z,10.83
2018-02-04T03:39:49.517Z,9.83
2018-02-04T03:42:17.002Z,10.03
2018-02-04T03:44:45.257Z,10.47
2018-02-04T03:47:12.746Z,9.87
2018-02-04T03:49:40.211Z,10.17
2018-02-04T03:52:07.706Z,10.13
2018-02-04T03:54:35.176Z,10.43
2018-02-04T03:57:02.648Z,11.23
2018-02-04T03:59:30.120Z,10.13
2018-02-04T04:01:57.599Z,10.60
2018-02-04T04:04:26.693Z,11.40
2018-02-04T04:06:54.917Z,12.43
2018-02-04T04:09:22.378Z,11.93
2018-02-04T04:11:49.857Z,10.03
2018-02-04T04:14:17.321Z,11.43
2018-02-04T04:16:44.827Z,10.90
2018-02-04T04:19:12.883Z,10.97
2018-02-04T04:21:40.364Z,11.33
2018-02-04T04:24:08.917Z,12.10
2018-02-04T04:26:37.168Z,11.50
2018-02-04T04:29:04.651Z,10.87
2018-02-04T04:31:32.894Z,11.37
2018-02-04T04:34:01.140Z,11.53
2018-02-04T04:36:28.615Z,11.50
2018-02-04T04:38:56.079Z,11.23
2018-02-04T04:41:23.559Z,11.33
2018-02-04T04:43:51.790Z,12.37
2018-02-04T04:46:19.265Z,14.27
2018-02-04T04:48:46.732Z,12.10
2018-02-04T04:51:14.215Z,11.53
2018-02-04T04:53:42.676Z,11.53
2018-02-04T04:56:10.137Z,11.60
2018-02-04T04:58:38.539Z,11.27
2018-02-04T05:01:06.762Z,10.83
2018-02-04T05:03:34.240Z,11.93
2018-02-04T05:06:02.489Z,10.10
2018-02-04T05:08:29.979Z,11.90
2018-02-04T05:10:58.232Z,10.37
2018-02-04T05:13:25.712Z,11.03
2018-02-04T05:15:53.170Z,14.03
2018-02-04T05:18:20.638Z,11.23
2018-02-04T05:20:48.098Z,10.03
2018-02-04T05:23:16.342Z,10.17
2018-02-04T05:25:43.824Z,9.80
2018-02-04T05:28:11.282Z,9.97
2018-02-04T05:30:38.768Z,10.30
2018-02-04T05:33:06.238Z,11.67
2018-02-04T05:35:34.230Z,11.10
2018-02-04T05:38:01.700Z,10.83
2018-02-04T05:40:29.241Z,10.83
2018-02-04T05:42:56.690Z,13.03
2018-02-04T05:45:24.188Z,13.00
2018-02-04T05:47:51.664Z,11.60
2018-02-04T05:50:19.920Z,13.47
2018-02-04T05:52:47.397Z,12.90
2018-02-04T05:55:15.627Z,14.37
2018-02-04T05:57:43.099Z,13.30
2018-02-04T06:00:10.561Z,15.57
2018-02-04T06:02:38.833Z,15.30
2018-02-04T06:05:06.326Z,15.70
2018-02-04T06:07:34.554Z,16.90
2018-02-04T06:10:02.032Z,14.77
2018-02-04T06:12:29.502Z,15.03
2018-02-04T06:14:57.767Z,15.37
2018-02-04T06:17:25.255Z,15.50
2018-02-04T06:19:52.738Z,17.50
2018-02-04T06:22:20.214Z,16.43
2018-02-04T06:24:47.956Z,17.17
2018-02-04T06:27:15.427Z,19.87
2018-02-04T06:29:42.912Z,19.40
2018-02-04T06:32:11.170Z,19.13
2018-02-04T06:34:39.381Z,18.83
2018-02-04T06:37:07.637Z,18.63
2018-02-04T06:39:35.123Z,20.43
2018-02-04T06:42:03.377Z,18.90
2018-02-04T06:44:30.854Z,21.67
2018-02-04T06:46:59.115Z,19.93
2018-02-04T06:49:27.371Z,20.20
2018-02-04T06:51:54.849Z,22.37
2018-02-04T06:54:22.340Z,19.10
2018-02-04T06:56:49.832Z,21.17
2018-02-04T06:59:17.314Z,22.33
2018-02-04T07:01:44.796Z,20.67
2018-02-04T07:04:13.205Z,22.30
2018-02-04T07:06:40.707Z,21.43
2018-02-04T07:09:08.184Z,21.77
2018-02-04T07:11:36.441Z,20.87
2018-02-04T07:14:03.925Z,20.03
2018-02-04T07:16:32.168Z,19.03
2018-02-04T07:18:59.651Z,20.87
2018-02-04T07:21:27.911Z,22.43
2018-02-04T07:23:55.384Z,19.87
2018-02-04T07:26:23.640Z,19.83
2018-02-04T07:28:51.126Z,20.20
2018-02-04T07:31:19.639Z,20.50
2018-02-04T07:33:47.106Z,19.50
2018-02-04T07:36:14.570Z,20.63
2018-02-04T07:38:42.045Z,21.77
2018-02-04T07:41:09.518Z,19.80
2018-02-04T07:43:36.994Z,22.53
2018-02-04T07:46:05.360Z,22.20
2018-02-04T07:48:33.602Z,21.17
2018-02-04T07:51:01.054Z,23.83
2018-02-04T07:53:28.521Z,22.87
2018-02-04T07:55:55.983Z,23.13
2018-02-04T07:58:23.457Z,24.30
2018-02-04T08:00:51.706Z,25.43
2018-02-04T08:03:19.161Z,21.00
2018-02-04T08:05:46.630Z,21.27
2018-02-04T08:08:14.090Z,20.33
2018-02-04T08:10:41.574Z,21.80
2018-02-04T08:13:09.824Z,18.33
2018-02-04T08:15:37.294Z,22.03
2018-02-04T08:18:05.553Z,20.20
2018-02-04T08:20:33.094Z,20.30
2018-02-04T08:23:00.575Z,22.20
2018-02-04T08:25:28.056Z,20.77
2018-02-04T08:27:55.557Z,22.97
2018-02-04T08:30:23.026Z,22.53
2018-02-04T08:32:50.601Z,19.77
2018-02-04T08:35:18.100Z,21.00
2018-02-04T08:37:45.585Z,21.30
2018-02-04T08:40:13.143Z,21.40
2018-02-04T08:42:40.601Z,20.57
2018-02-04T08:45:08.065Z,22.83
2018-02-04T08:47:35.821Z,22.07
2018-02-04T08:50:03.281Z,22.17
2018-02-04T08:52:30.742Z,22.07
2018-02-04T08:54:58.230Z,25.43
2018-02-04T08:57:25.697Z,20.80
2018-02-04T08:59:53.162Z,21.70
2018-02-04T09:02:21.385Z,20.93
2018-02-04T09:04:48.858Z,21.70
2018-02-04T09:07:16.323Z,21.03
2018-02-04T09:09:43.790Z,21.90
2018-02-04T09:12:11.261Z,23.47
2018-02-04T09:14:38.715Z,20.23
2018-02-04T09:17:06.219Z,20.60
2018-02-04T09:19:33.677Z,19.00
2018-02-04T09:22:01.149Z,18.13
2018-02-04T09:24:28.629Z,18.80
2018-02-04T09:26:56.088Z,20.40
2018-02-04T09:29:23.568Z,20.67
2018-02-04T09:31:51.063Z,17.20
2018-02-04T09:34:18.534Z,18.83
2018-02-04T09:36:46.009Z,17.17
2018-02-04T09:39:13.475Z,17.77
2018-02-04T09:41:40.953Z,17.83
2018-02-04T09:44:08.409Z,17.57
2018-02-04T09:46:35.882Z,19.07
2018-02-04T09:49:04.106Z,19.87
2018-02-04T09:51:31.570Z,18.10
2018-02-04T09:53:59.042Z,15.77
2018-02-04T09:56:26.518Z,29.97
2018-02-04T09:58:53.974Z,17.77
2018-02-04T10:01:21.441Z,19.40
2018-02-04T10:03:49.671Z,20.03
2018-02-04T10:06:17.129Z,21.20
2018-02-04T10:08:44.598Z,20.27
2018-02-04T10:11:12.086Z,21.40
2018-02-04T10:13:40.318Z,22.27
2018-02-04T10:16:08.018Z,23.17
2018-02-04T10:18:35.525Z,21.50
2018-02-04T10:21:03.002Z,25.40
2018-02-04T10:23:30.465Z,21.80
2018-02-04T10:25:57.939Z,28.70
2018-02-04T10:28:25.416Z,21.60
2018-02-04T10:30:53.664Z,21.77
2018-02-04T10:33:21.135Z,21.30
2018-02-04T10:35:48.621Z,24.80
2018-02-04T10:38:16.104Z,17.40
2018-02-04T10:40:43.569Z,16.63
2018-02-04T10:43:11.066Z,14.40
2018-02-04T10:45:38.549Z,14.43
2018-02-04T10:48:06.027Z,14.97
2018-02-04T10:50:33.500Z,15.53
2018-02-04T10:53:00.982Z,14.73
2018-02-04T10:55:28.440Z,15.00
2018-02-04T10:57:55.930Z,14.87
2018-02-04T11:00:23.409Z,16.53
2018-02-04T11:02:50.879Z,15.07
2018-02-04T11:05:18.366Z,14.00
2018-02-04T11:07:45.858Z,14.67
2018-02-04T11:10:14.122Z,17.67
2018-02-04T11:12:42.370Z,17.47
2018-02-04T11:15:09.839Z,20.87
2018-02-04T11:17:37.306Z,13.27
2018-02-04T11:20:05.554Z,13.03
2018-02-04T11:22:33.045Z,11.97
2018-02-04T11:25:01.273Z,15.53
2018-02-04T11:27:29.049Z,14.43
2018-02-04T11:29:56.510Z,11.47
2018-02-04T11:32:24.019Z,9.93
2018-02-04T11:34:51.485Z,8.53
2018-02-04T11:37:18.945Z,8.47
2018-02-04T11:39:46.411Z,7.80
2018-02-04T11:42:13.861Z,11.50
2018-02-04T11:44:41.386Z,10.67
2018-02-04T11:47:08.803Z,9.63
2018-02-04T11:49:36.268Z,9.80
2018-02-04T11:52:03.738Z,9.27
2018-02-04T11:54:31.185Z,10.57
2018-02-04T11:57:00.281Z,9.37
2018-02-04T11:59:27.795Z,9.33
2018-02-04T12:01:55.224Z,9.00
2018-02-04T12:04:23.646Z,10.57
2018-02-04T12:06:51.104Z,11.90
2018-02-04T12:09:18.618Z,11.43
2018-02-04T12:11:46.078Z,10.97
2018-02-04T12:14:14.310Z,12.17
2018-02-04T12:16:41.777Z,11.00
2018-02-04T12:19:09.246Z,9.77
2018-02-04T12:21:36.725Z,9.57
2018-02-04T12:24:05.001Z,6.70
2018-02-04T12:26:32.452Z,7.60
2018-02-04T12:29:00.696Z,7.60
2018-02-04T12:31:28.166Z,6.60
2018-02-04T12:33:55.632Z,6.70
2018-02-04T12:36:23.883Z,7.13
2018-02-04T12:38:51.344Z,8.00
2018-02-04T12:41:18.816Z,7.63
2018-02-04T12:43:46.282Z,9.53
2018-02-04T12:46:13.743Z,9.97
2018-02-04T12:48:41.206Z,8.13
2018-02-04T12:51:09.436Z,6.03
2018-02-04T12:53:36.910Z,4.40
2018-02-04T12:56:04.394Z,5.70
2018-02-04T12:58:31.876Z,5.07
2018-02-04T13:00:59.355Z,6.40
2018-02-04T13:03:26.820Z,6.40
2018-02-04T13:05:54.307Z,4.50
2018-02-04T13:08:21.781Z,4.27
2018-02-04T13:10:50.026Z,4.20
2018-02-04T13:13:17.487Z,4.20
2018-02-04T13:15:44.941Z,4.63
2018-02-04T13:18:12.406Z,4.17
2018-02-04T13:20:40.330Z,4.20
2018-02-04T13:23:07.815Z,4.60
2018-02-04T13:25:35.300Z,4.47
2018-02-04T13:28:02.779Z,5.33
2018-02-04T13:30:31.002Z,4.83
2018-02-04T13:32:58.470Z,5.37
2018-02-04T13:35:25.932Z,5.50
2018-02-04T13:37:53.393Z,5.13
2018-02-04T13:40:20.874Z,15.10
2018-02-04T13:42:49.102Z,8.87
2018-02-04T13:45:16.571Z,5.13
2018-02-04T13:47:44.031Z,7.50
2018-02-04T13:50:11.702Z,6.50
2018-02-04T13:52:39.182Z,6.13
2018-02-04T13:55:07.407Z,6.40
2018-02-04T13:57:34.870Z,5.77
2018-02-04T14:00:02.330Z,6.57
2018-02-04T14:02:29.782Z,8.63
2018-02-04T14:04:57.294Z,6.33
2018-02-04T14:07:25.510Z,6.30
2018-02-04T14:09:52.973Z,8.20
2018-02-04T14:12:20.422Z,8.67
2018-02-04T14:14:47.893Z,7.60
2018-02-04T14:17:15.410Z,7.07
2018-02-04T14:19:42.907Z,7.23
2018-02-04T14:22:10.402Z,6.90
2018-02-04T14:24:38.647Z,7.23
2018-02-04T14:27:06.899Z,7.03
2018-02-04T14:29:34.372Z,6.27
2018-02-04T14:32:01.861Z,7.93
2018-02-04T14:34:29.331Z,8.50
2018-02-04T14:36:57.572Z,8.73
2018-02-04T14:39:25.053Z,7.37
2018-02-04T14:41:52.518Z,6.87
2018-02-04T14:44:19.965Z,7.50
2018-02-04T14:46:47.427Z,7.33
2018-02-04T14:49:14.881Z,7.07
2018-02-04T14:51:42.367Z,7.93
2018-02-04T14:54:09.851Z,8.03
2018-02-04T14:56:37.318Z,7.97
2018-02-04T14:59:04.785Z,7.50
2018-02-04T15:01:32.254Z,6.90
2018-02-04T15:03:59.718Z,7.43
2018-02-04T15:06:27.200Z,8.77
2018-02-04T15:08:55.429Z,7.97
2018-02-04T15:11:22.927Z,6.80
2018-02-04T15:13:51.182Z,8.47
2018-02-04T15:16:18.643Z,7.07
2018-02-04T15:18:46.115Z,7.73
2018-02-04T15:21:13.561Z,6.70
2018-02-04T15:23:41.027Z,7.33
2018-02-04T15:26:08.489Z,7.30
2018-02-04T15:28:35.951Z,8.57
2018-02-04T15:31:04.188Z,8.17
2018-02-04T15:33:32.645Z,7.97
2018-02-04T15:36:02.058Z,8.63
2018-02-04T15:38:29.532Z,7.63
2018-02-04T15:40:57.008Z,7.37
2018-02-04T15:43:25.308Z,7.43
2018-02-04T15:45:52.760Z,8.93
2018-02-04T15:48:20.996Z,11.23
2018-02-04T15:50:48.466Z,7.50
2018-02-04T15:53:15.934Z,7.27
2018-02-04T15:55:43.410Z,8.27
2018-02-04T15:58:11.758Z,11.17
2018-02-04T16:00:39.259Z,9.77
2018-02-04T16:03:06.739Z,11.47
2018-02-04T16:05:34.227Z,11.40
2018-02-04T16:08:02.503Z,14.13
2018-02-04T16:10:29.974Z,14.70
2018-02-04T16:12:57.439Z,12.33
2018-02-04T16:15:25.682Z,14.90
2018-02-04T16:17:53.159Z,17.70
2018-02-04T16:20:20.654Z,13.40
2018-02-04T16:22:48.130Z,13.93
2018-02-04T16:25:15.615Z,15.33
2018-02-04T16:27:43.101Z,14.53
2018-02-04T16:30:11.352Z,12.27
2018-02-04T16:32:38.829Z,13.90
2018-02-04T16:35:06.305Z,12.20
2018-02-04T16:37:34.543Z,12.77
2018-02-04T16:40:02.018Z,13.37
2018-02-04T16:42:30.265Z,13.87
2018-02-04T16:44:58.553Z,13.67
2018-02-04T16:47:26.026Z,12.83
2018-02-04T16:49:53.507Z,13.27
2018-02-04T16:52:21.751Z,11.67
2018-02-04T16:54:49.232Z,11.20
2018-02-04T16:57:17.458Z,12.63
2018-02-04T16:59:44.963Z,15.40
2018-02-04T17:02:13.214Z,16.20
2018-02-04T17:04:40.699Z,15.53
2018-02-04T17:07:08.942Z,15.30
2018-02-04T17:09:36.474Z,15.33
2018-02-04T17:12:03.954Z,16.57
2018-02-04T17:14:31.474Z,14.13
2018-02-04T17:16:58.984Z,17.17
2018-02-04T17:19:26.466Z,16.90
2018-02-04T17:21:54.742Z,19.73
2018-02-04T17:24:22.977Z,17.30
2018-02-04T17:26:50.451Z,15.87
2018-02-04T17:29:17.955Z,18.27
2018-02-04T17:31:45.430Z,20.40
2018-02-04T17:34:12.947Z,17.83
2018-02-04T17:36:40.430Z,20.40
2018-02-04T17:39:07.947Z,29.40
2018-02-04T17:41:36.191Z,38.73
2018-02-04T17:44:03.674Z,43.47
2018-02-04T17:46:31.154Z,36.97
2018-02-04T17:48:59.391Z,22.37
2018-02-04T17:51:26.885Z,20.20
2018-02-04T17:53:55.154Z,19.17
2018-02-04T17:56:24.647Z,22.67
2018-02-04T17:58:52.135Z,22.27
2018-02-04T18:01:20.383Z,20.90
2018-02-04T18:03:47.875Z,20.73
2018-02-04T18:06:16.341Z,19.60
2018-02-04T18:08:44.582Z,21.77
2018-02-04T18:11:16.197Z,20.97
2018-02-04T18:13:43.692Z,20.63
2018-02-04T18:16:11.188Z,21.17
2018-02-04T18:18:41.152Z,17.87
2018-02-04T18:21:08.862Z,20.90
2018-02-04T18:23:37.152Z,21.10
2018-02-04T18:26:04.684Z,20.67
2018-02-04T18:28:32.162Z,20.20
2018-02-04T18:31:01.135Z,22.03
2018-02-04T18:33:30.888Z,21.83
2018-02-04T18:36:00.083Z,22.20
2018-02-04T18:38:29.808Z,25.23
2018-02-04T18:40:57.290Z,22.23
2018-02-04T18:43:24.764Z,21.87
2018-02-04T18:45:53.170Z,24.93
2018-02-04T18:48:20.653Z,22.53
2018-02-04T18:50:48.184Z,22.63
2018-02-04T18:53:16.417Z,22.50
2018-02-04T18:55:43.898Z,19.93
2018-02-04T18:58:11.354Z,21.73
2018-02-04T19:00:38.817Z,19.93
2018-02-04T19:03:07.242Z,18.47
2018-02-04T19:05:35.725Z,20.13
2018-02-04T19:08:03.195Z,17.60
2018-02-04T19:10:32.686Z,19.47
2018-02-04T19:13:00.143Z,19.53
2018-02-04T19:15:27.622Z,21.70
2018-02-04T19:17:55.099Z,21.83
2018-02-04T19:20:23.337Z,20.83
2018-02-04T19:22:50.805Z,21.13
2018-02-04T19:25:18.294Z,19.30
2018-02-04T19:27:45.746Z,22.50
2018-02-04T19:30:13.218Z,20.93
2018-02-04T19:35:15.458Z,23.97
2018-02-04T19:37:42.939Z,23.53
2018-02-04T19:40:10.401Z,23.53
2018-02-04T19:42:37.877Z,23.70
2018-02-04T19:45:06.101Z,23.13
2018-02-04T19:47:33.578Z,22.83
2018-02-04T19:50:01.057Z,22.07
2018-02-04T19:52:28.512Z,23.67
2018-02-04T19:54:55.978Z,23.37
2018-02-04T19:57:24.222Z,24.93
2018-02-04T19:59:51.675Z,26.10
2018-02-04T20:02:19.139Z,25.53
2018-02-04T20:04:46.640Z,23.77
2018-02-04T20:07:14.153Z,23.27
2018-02-04T20:09:41.653Z,23.30
2018-02-04T20:12:09.201Z,27.30
2018-02-04T20:14:37.442Z,25.27
2018-02-04T20:17:04.903Z,27.47
2018-02-04T20:19:32.365Z,26.57
2018-02-04T20:21:59.830Z,25.43
2018-02-04T20:24:27.299Z,27.93
2018-02-04T20:26:54.782Z,27.57
2018-02-04T20:29:22.247Z,31.87
2018-02-04T20:31:49.726Z,37.00
2018-02-04T20:34:29.081Z,35.70
2018-02-04T20:36:56.546Z,35.03
2018-02-04T20:39:24.024Z,36.23
2018-02-04T20:41:51.521Z,33.17
2018-02-04T20:44:18.963Z,32.40
2018-02-04T20:46:46.442Z,34.00
2018-02-04T20:49:13.906Z,31.43
2018-02-04T20:51:41.377Z,29.93
2018-02-04T20:54:08.846Z,30.90
2018-02-04T20:56:36.310Z,30.10
2018-02-04T20:59:03.785Z,33.17
2018-02-04T21:01:32.024Z,31.87
2018-02-04T21:03:59.502Z,28.90
2018-02-04T21:06:26.990Z,30.30
2018-02-04T21:08:55.229Z,32.20
2018-02-04T21:11:22.695Z,32.20
2018-02-04T21:13:50.175Z,28.83
2018-02-04T21:16:18.410Z,28.53
2018-02-04T21:18:46.962Z,29.33
2018-02-04T21:21:14.439Z,29.90
2018-02-04T21:23:41.891Z,31.10
2018-02-04T21:26:09.388Z,34.57
2018-02-04T21:28:36.901Z,35.20
2018-02-04T21:31:05.130Z,31.73
2018-02-04T21:33:33.363Z,31.87
2018-02-04T21:36:00.844Z,27.53
2018-02-04T21:38:28.304Z,31.73
2018-02-04T21:40:56.565Z,32.23
2018-02-04T21:43:24.026Z,28.40
2018-02-04T21:45:51.505Z,26.87
2018-02-04T21:48:19.731Z,27.43
2018-02-04T21:50:47.214Z,25.80
2018-02-04T21:53:14.687Z,26.47
2018-02-04T21:55:42.167Z,24.90
2018-02-04T21:58:10.403Z,24.63
2018-02-04T22:00:37.865Z,24.93
2018-02-04T22:03:05.345Z,24.00
2018-02-04T22:05:33.583Z,25.97
2018-02-04T22:08:01.041Z,26.87
2018-02-04T22:10:28.741Z,28.90
2018-02-04T22:12:56.974Z,26.03
2018-02-04T22:15:24.453Z,27.60
2018-02-04T22:17:51.936Z,26.87
2018-02-04T22:20:19.375Z,24.47
2018-02-04T22:22:46.850Z,24.27
2018-02-04T22:25:15.078Z,26.40
2018-02-04T22:27:42.551Z,26.37
2018-02-04T22:30:10.025Z,26.93
2018-02-04T22:32:37.486Z,27.33
2018-02-04T22:35:04.958Z,25.47
2018-02-04T22:37:33.190Z,27.03
2018-02-04T22:40:00.674Z,26.73
2018-02-04T22:42:28.147Z,25.87
2018-02-04T22:44:55.613Z,24.50
2018-02-04T22:47:23.092Z,23.20
2018-02-04T22:49:50.561Z,25.27
2018-02-04T22:52:18.031Z,28.37
2018-02-04T22:54:45.528Z,32.80
2018-02-04T22:57:12.993Z,31.17
2018-02-04T22:59:41.239Z,33.03
2018-02-04T23:02:08.711Z,47.23
2018-02-04T23:04:36.173Z,32.37
2018-02-04T23:07:03.637Z,34.13
2018-02-04T23:09:31.870Z,36.27
2018-02-04T23:11:59.337Z,44.50
2018-02-04T23:14:26.806Z,39.73
2018-02-04T23:16:55.047Z,39.20
2018-02-04T23:19:22.539Z,35.13
2018-02-04T23:21:49.990Z,34.77
2018-02-04T23:24:17.451Z,37.17
2018-02-04T23:26:44.913Z,35.07
2018-02-04T23:29:12.369Z,34.73
2018-02-04T23:31:39.833Z,35.60
2018-02-04T23:34:08.069Z,32.37
2018-02-04T23:36:35.531Z,37.97
2018-02-04T23:39:03.375Z,38.00
2018-02-04T23:41:30.858Z,40.83
2018-02-04T23:43:58.317Z,38.90
2018-02-04T23:46:25.794Z,33.47
2018-02-04T23:48:53.254Z,38.20
2018-02-04T23:51:20.753Z,34.53
2018-02-04T23:53:48.217Z,42.17
2018-02-04T23:56:15.724Z,48.57
2018-02-04T23:58:43.161Z,77.43
